Etusivu
METAR-TAF:

METAR-TAF

Lentoasemat :

Nipawin, Saskatchewan, Kanada

Leveyspiiri: 53-20N, Pituuspiiri: 104-00W, korkeus merenpinnasta: 372 m

Tämänhetkinen sää

Tämä raportti tehtiin 39 minuuttia sitten, kello 13.00 UTC
Tuuli 5 kn idästä/koillisesta
Lämpötila -7°C
Kosteus 93%
Ilmanpaine 1007 hPa
Näkyvyys: 14.5 km
Hajonneita pilviä 12000 ft:n korkeudessa

METAR: CYBU 251300Z AUTO 06005KT 9SM BKN120 M07/M08 A2974 RMK SLP102

Aika: 07:39 (13:39 UTC)


TAF: puuttuu

Säähavainnot ja -ennusteet yli 4000 lentoasemalta (METAR- ja TAF-raportit).

Käytössä olevat sääasemat on merkitty karttaan keltaisilla ja punaisilla pisteillä.

Aseta hiiri pisteen päälle nähdäksesi sääaseman nimen.

Klikkaa sitten nähdäksesi säähavainnot ja -ennusteet.

Kartan vaihtaminen: klikkaa mustalla rastilla varustettuja vihreitä pisteitä, niin voit zoomata sisään; viivalla varustettua vihreää pistettä, niin voit zoomata ulos tai vihreitä nuolia, niin pääset viereisille kartoille.


METAR-TAF: